Appleton, MN

11:04 PM CST on February 21, 2017 (GMT -0600)
Appleton Municipal

Weather History for KAQP - February, 2012

Change the Weather History Date:

Tuesday, February 7, 2012

  Actual Average Record
Temperature  
Mean Temperature 18 °F -  
Max Temperature 24 °F 23 °F 46 °F (2002)
Min Temperature 10 °F 6 °F -18 °F (2003)
Degree Days  
Heating Degree Days 47    
Moisture  
Dew Point 11 °F    
Average Humidity 74    
Maximum Humidity 92    
Minimum Humidity 43    
Precipitation  
Precipitation 0.00 in - - ()
Sea Level Pressure  
Sea Level Pressure 30.52 in    
Wind  
Wind Speed 15 mph (NNW)    
Max Wind Speed 21 mph    
Max Gust Speed 24 mph    
Visibility 10 miles    
Events      
Averages and records for this station are not official NWS values.
T = Trace of Precipitation, MM = Missing Value Source: NWS Daily Summary

Daily Weather History Graph

Daily Weather History Graph

Search for Another Location

Airport or City:

Trip Planner

Search our weather history database for the weather conditions in past years. The results will help you decide how hot, cold, wet, or windy it might be!

Date:

Astronomy

Feb. 07, 2012 Rise Set
Actual Time 7:37 AM CST 5:39 PM CST
Civil Twilight 7:06 AM CST 6:10 PM CST
Nautical Twilight 6:31 AM CST 6:45 PM CST
Astronomical Twilight 5:57 AM CST 7:19 PM CST
Moon 5:54 PM CST (2/7) 7:05 AM CST (2/7)
Length of Visible Light 11h 03m
Length of Day
10h 02m
Full, 100% of the Moon is Illuminated
Feb 7
Full
Feb 7
Full
Feb 14
Last Quarter
Feb 21
New
Feb 29
First Quarter

Hourly Weather History & Observations

Time (CST) Temp. Windchill Dew Point Humidity Pressure Visibility Wind Dir Wind Speed Gust Speed Precip Events Conditions
12:14 AM 24.8 °F 11.5 °F 21.2 °F 86% 30.37 in 10.0 mi North 17.3 mph - N/A   Overcast
12:35 AM 24.8 °F 11.5 °F 21.2 °F 86% 30.39 in 10.0 mi North 17.3 mph - N/A   Overcast
12:54 AM 24.8 °F 11.5 °F 21.2 °F 86% 30.39 in 10.0 mi North 17.3 mph - N/A   Overcast
1:14 AM 24.8 °F 11.5 °F 19.4 °F 80% 30.40 in 10.0 mi NNW 17.3 mph - N/A   Overcast
1:34 AM 23.0 °F 9.2 °F 19.4 °F 86% 30.40 in 10.0 mi NNW 17.3 mph - N/A   Overcast
1:54 AM 23.0 °F 8.7 °F 19.4 °F 86% 30.41 in 10.0 mi North 18.4 mph 24.2 mph N/A   Overcast
2:14 AM 21.2 °F 7.3 °F 17.6 °F 86% 30.42 in 10.0 mi NNW 16.1 mph 24.2 mph N/A   Overcast
2:34 AM 21.2 °F 6.0 °F 17.6 °F 86% 30.43 in 10.0 mi NNW 19.6 mph 23.0 mph N/A   Overcast
2:54 AM 21.2 °F 6.8 °F 17.6 °F 86% 30.44 in 10.0 mi NNW 17.3 mph - N/A   Overcast
3:14 AM 21.2 °F 6.4 °F 15.8 °F 80% 30.44 in 10.0 mi NNW 18.4 mph 23.0 mph N/A   Overcast
3:34 AM 19.4 °F 4.5 °F 15.8 °F 86% 30.44 in 10.0 mi NNW 17.3 mph 21.9 mph N/A   Overcast
3:55 AM 19.4 °F 3.2 °F 15.8 °F 86% 30.45 in 10.0 mi NNW 20.7 mph 24.2 mph N/A   Overcast
4:15 AM 19.4 °F 5.0 °F 15.8 °F 86% 30.46 in 10.0 mi North 16.1 mph - N/A   Overcast
4:34 AM 17.6 °F 2.2 °F 14.0 °F 86% 30.47 in 10.0 mi North 17.3 mph - N/A   Overcast
4:54 AM 17.6 °F 2.7 °F 14.0 °F 86% 30.48 in 10.0 mi North 16.1 mph 20.7 mph N/A   Overcast
5:14 AM 17.6 °F 2.2 °F 12.2 °F 79% 30.49 in 10.0 mi North 17.3 mph - N/A   Mostly Cloudy
5:34 AM 15.8 °F -0.2 °F 12.2 °F 86% 30.50 in 10.0 mi North 17.3 mph - N/A   Scattered Clouds
5:54 AM 15.8 °F 1.4 °F 12.2 °F 86% 30.51 in 10.0 mi NNW 13.8 mph - N/A   Clear
6:14 AM 14.0 °F -1.4 °F 10.4 °F 86% 30.52 in 10.0 mi North 15.0 mph - N/A   Clear
6:35 AM 14.0 °F -0.8 °F 10.4 °F 86% 30.52 in 10.0 mi North 13.8 mph - N/A   Clear
6:55 AM 12.2 °F -1.8 °F 10.4 °F 92% 30.53 in 10.0 mi NNW 11.5 mph - N/A   Clear
7:14 AM 12.2 °F -2.5 °F 10.4 °F 92% 30.53 in 10.0 mi NNW 12.7 mph - N/A   Clear
7:34 AM 12.2 °F -2.5 °F 8.6 °F 85% 30.54 in 10.0 mi North 12.7 mph - N/A   Clear
7:54 AM 12.2 °F -3.1 °F 8.6 °F 85% 30.54 in 10.0 mi North 13.8 mph - N/A   Clear
8:15 AM 12.2 °F -3.7 °F 10.4 °F 92% 30.56 in 10.0 mi North 15.0 mph - N/A   Clear
8:34 AM 12.2 °F -3.7 °F 10.4 °F 92% 30.56 in 10.0 mi North 15.0 mph - N/A   Clear
8:54 AM 14.0 °F -0.8 °F 10.4 °F 86% 30.57 in 10.0 mi North 13.8 mph - N/A   Clear
9:15 AM 14.0 °F -0.8 °F 8.6 °F 79% 30.57 in 10.0 mi North 13.8 mph - N/A   Scattered Clouds
9:35 AM 14.0 °F -0.8 °F 10.4 °F 86% 30.58 in 10.0 mi North 13.8 mph - N/A   Mostly Cloudy
9:55 AM 15.8 °F 2.1 °F 10.4 °F 79% 30.59 in 10.0 mi North 12.7 mph - N/A   Overcast
10:14 AM 15.8 °F 2.1 °F 10.4 °F 79% 30.59 in 10.0 mi North 12.7 mph 18.4 mph N/A   Scattered Clouds
10:35 AM 15.8 °F 1.4 °F 10.4 °F 79% 30.59 in 10.0 mi North 13.8 mph - N/A   Clear
10:54 AM 17.6 °F 4.3 °F 10.4 °F 73% 30.60 in 10.0 mi North 12.7 mph - N/A   Scattered Clouds
11:15 AM 17.6 °F 4.3 °F 10.4 °F 73% 30.60 in 10.0 mi North 12.7 mph - N/A   Scattered Clouds
11:35 AM 17.6 °F 4.3 °F 10.4 °F 73% 30.60 in 10.0 mi NNW 12.7 mph - N/A   Clear
11:55 AM 17.6 °F 4.3 °F 10.4 °F 73% 30.59 in 10.0 mi North 12.7 mph - N/A   Clear
12:15 PM 17.6 °F 3.7 °F 10.4 °F 73% 30.59 in 10.0 mi North 13.8 mph 17.3 mph N/A   Clear
12:34 PM 19.4 °F 7.9 °F 10.4 °F 68% 30.58 in 10.0 mi North 10.4 mph 16.1 mph N/A   Clear
12:55 PM 19.4 °F 7.9 °F 10.4 °F 68% 30.57 in 10.0 mi North 10.4 mph - N/A   Clear
1:14 PM 23.0 °F 10.6 °F 10.4 °F 59% 30.56 in 10.0 mi North 13.8 mph - N/A   Clear
1:35 PM 24.8 °F 13.4 °F 10.4 °F 54% 30.55 in 10.0 mi North 12.7 mph - N/A   Clear
1:55 PM 24.8 °F 13.4 °F 8.6 °F 50% 30.54 in 10.0 mi North 12.7 mph - N/A   Clear
2:14 PM 24.8 °F 12.9 °F 8.6 °F 50% 30.54 in 10.0 mi North 13.8 mph 18.4 mph N/A   Clear
2:34 PM 24.8 °F 12.4 °F 8.6 °F 50% 30.54 in 10.0 mi North 15.0 mph 19.6 mph N/A   Clear
2:54 PM 24.8 °F 12.9 °F 6.8 °F 46% 30.54 in 10.0 mi North 13.8 mph - N/A   Clear
3:14 PM 23.0 °F 11.7 °F 8.6 °F 54% 30.55 in 10.0 mi NNW 11.5 mph 17.3 mph N/A   Clear
3:35 PM 24.8 °F 14.0 °F 6.8 °F 46% 30.54 in 10.0 mi North 11.5 mph - N/A   Clear
3:55 PM 24.8 °F 14.6 °F 6.8 °F 46% 30.54 in 10.0 mi NNW 10.4 mph - N/A   Clear
4:15 PM 24.8 °F 14.6 °F 6.8 °F 46% 30.54 in 10.0 mi NNW 10.4 mph - N/A   Clear
4:35 PM 24.8 °F 15.3 °F 5.0 °F 43% 30.54 in 10.0 mi North 9.2 mph - N/A   Clear
4:55 PM 23.0 °F 11.7 °F 6.8 °F 50% 30.53 in 10.0 mi NNW 11.5 mph - N/A   Clear
5:15 PM 21.2 °F 10.9 °F 6.8 °F 54% 30.53 in 10.0 mi NNW 9.2 mph - N/A   Clear
5:35 PM 19.4 °F 9.5 °F 6.8 °F 58% 30.53 in 10.0 mi NNW 8.1 mph - N/A   Clear
5:55 PM 17.6 °F 7.3 °F 6.8 °F 63% 30.54 in 10.0 mi NNW 8.1 mph - N/A   Clear
6:15 PM 17.6 °F 8.2 °F 6.8 °F 63% 30.54 in 10.0 mi NNW 6.9 mph - N/A   Clear
6:35 PM 15.8 °F 5.1 °F 6.8 °F 68% 30.54 in 10.0 mi NW 8.1 mph - N/A   Clear
6:55 PM 14.0 °F 3.9 °F 6.8 °F 73% 30.54 in 10.0 mi NW 6.9 mph - N/A   Clear
7:14 PM 12.2 °F 1.7 °F 6.8 °F 79% 30.54 in 10.0 mi NW 6.9 mph - N/A   Clear
7:35 PM 12.2 °F 0.7 °F 6.8 °F 79% 30.54 in 10.0 mi NW 8.1 mph - N/A   Clear
7:54 PM 12.2 °F 1.7 °F 6.8 °F 79% 30.54 in 10.0 mi NW 6.9 mph - N/A   Clear
8:14 PM 12.2 °F 1.7 °F 6.8 °F 79% 30.54 in 10.0 mi NW 6.9 mph - N/A   Clear
8:35 PM 12.2 °F 0.7 °F 6.8 °F 79% 30.54 in 10.0 mi NW 8.1 mph - N/A   Clear
8:55 PM 10.4 °F -0.4 °F 6.8 °F 85% 30.55 in 10.0 mi NW 6.9 mph - N/A   Clear
9:15 PM 10.4 °F -1.5 °F 6.8 °F 85% 30.55 in 10.0 mi NW 8.1 mph - N/A   Clear
9:34 PM 10.4 °F -1.5 °F 5.0 °F 79% 30.54 in 10.0 mi NW 8.1 mph - N/A   Clear
9:54 PM 8.6 °F 2.0 °F 5.0 °F 85% 30.55 in 10.0 mi West 3.5 mph - N/A   Clear
10:15 PM 5.0 °F -5.6 °F 1.4 °F 85% 30.55 in 10.0 mi WNW 5.8 mph - N/A   Clear
10:35 PM 3.2 °F -6.2 °F -0.4 °F 85% 30.54 in 10.0 mi West 4.6 mph - N/A   Clear
10:55 PM 3.2 °F -9.1 °F 1.4 °F 92% 30.54 in 10.0 mi WNW 6.9 mph - N/A   Clear
11:15 PM 5.0 °F -5.6 °F 1.4 °F 85% 30.54 in 10.0 mi West 5.8 mph - N/A   Clear
11:55 PM 3.2 °F -6.2 °F -0.4 °F 85% 30.54 in 10.0 mi West 4.6 mph - N/A   Clear